Time;durP1;ratioP1;P1;durP2;ratioP2;P2;SDS_P1;SDS_P2;PMS_P1;PMS_P2;Temp;Humidity;BMP_temperature;BMP_pressure;BME280_temperature;BME280_humidity;BME280_pressure;Samples;Min_cycle;Max_cycle;Signal;HPM_P1;HPM_P2
2023/05/23 00:02:17;;;;;;;2.47;1.92;;;;;;;;;;5023472;28;20131;-66
2023/05/23 00:04:43;;;;;;;3.40;2.58;;;;;;;;;;5027053;28;20081;-66
2023/05/23 00:07:09;;;;;;;4.43;2.75;;;;;;;;;;5027806;28;20505;-66
2023/05/23 00:09:35;;;;;;;3.33;2.55;;;;;;;;;;5027319;28;20053;-66
2023/05/23 00:12:01;;;;;;;2.67;2.47;;;;;;;;;;5027093;28;20041;-66
2023/05/23 00:14:32;;;;;;;2.25;1.95;;;;;;;;;;5028385;28;20045;-66
2023/05/23 00:17:00;;;;;;;3.85;2.75;;;;;;;;;;5008977;28;20124;-66
2023/05/23 00:19:26;;;;;;;3.92;3.03;;;;;;;;;;5027857;28;20061;-66
2023/05/23 00:21:55;;;;;;;2.22;2.13;;;;;;;;;;5025929;28;20037;-66
2023/05/23 00:24:21;;;;;;;3.20;2.67;;;;;;;;;;5022304;28;20045;-66
2023/05/23 00:26:47;;;;;;;3.80;2.65;;;;;;;;;;5026819;28;20052;-66
2023/05/23 00:29:15;;;;;;;6.05;2.78;;;;;;;;;;5025966;28;20042;-66
2023/05/23 00:31:45;;;;;;;2.28;2.08;;;;;;;;;;5026089;28;20187;-66
2023/05/23 00:34:11;;;;;;;2.05;1.80;;;;;;;;;;5020833;28;20518;-66
2023/05/23 00:36:37;;;;;;;2.60;2.40;;;;;;;;;;5027496;28;20084;-66
2023/05/23 00:39:03;;;;;;;4.95;3.30;;;;;;;;;;5026062;28;20077;-66
2023/05/23 00:41:30;;;;;;;2.60;2.35;;;;;;;;;;5027533;28;20512;-66
2023/05/23 00:44:00;;;;;;;2.33;1.95;;;;;;;;;;5026546;28;20041;-66
2023/05/23 00:46:27;;;;;;;4.40;2.25;;;;;;;;;;5027881;28;20084;-66
2023/05/23 00:48:53;;;;;;;3.20;2.00;;;;;;;;;;5026705;28;20033;-66
2023/05/23 00:51:20;;;;;;;2.10;1.67;;;;;;;;;;5026588;28;20458;-66
2023/05/23 00:53:46;;;;;;;2.30;1.60;;;;;;;;;;5026283;28;20162;-66
2023/05/23 00:56:12;;;;;;;1.92;1.60;;;;;;;;;;5027209;28;20704;-66
2023/05/23 00:58:39;;;;;;;2.63;1.60;;;;;;;;;;5024355;28;20120;-66
2023/05/23 01:01:05;;;;;;;2.25;1.30;;;;;;;;;;5025914;28;20124;-66
2023/05/23 01:03:32;;;;;;;2.72;1.88;;;;;;;;;;5027062;28;20053;-66
2023/05/23 01:05:58;;;;;;;2.78;1.40;;;;;;;;;;5024499;28;20046;-66
2023/05/23 01:08:24;;;;;;;3.20;1.80;;;;;;;;;;5027670;28;20050;-66
2023/05/23 01:10:51;;;;;;;3.45;1.80;;;;;;;;;;5021693;28;20530;-66
2023/05/23 01:13:22;;;;;;;3.72;2.05;;;;;;;;;;5026078;28;20049;-66
2023/05/23 01:16:08;;;;;;;3.88;1.65;;;;;;;;;;5021335;28;20041;-66
2023/05/23 01:18:40;;;;;;;3.20;2.50;;;;;;;;;;5026345;28;20513;-66
2023/05/23 01:21:16;;;;;;;2.15;1.95;;;;;;;;;;5025796;28;20516;-66
2023/05/23 01:23:59;;;;;;;2.85;2.13;;;;;;;;;;5024800;28;20080;-66
2023/05/23 01:26:43;;;;;;;5.55;3.20;;;;;;;;;;5025511;28;20389;-66
2023/05/23 01:29:11;;;;;;;4.47;2.85;;;;;;;;;;5026381;28;20052;-66
2023/05/23 01:31:40;;;;;;;8.05;3.50;;;;;;;;;;5026588;28;20045;-66
2023/05/23 01:34:07;;;;;;;4.53;2.90;;;;;;;;;;5007697;28;20061;-66
2023/05/23 01:36:34;;;;;;;5.63;2.92;;;;;;;;;;5026193;28;20564;-66
2023/05/23 01:39:01;;;;;;;6.25;3.67;;;;;;;;;;5025532;28;20041;-66
2023/05/23 01:41:27;;;;;;;4.85;3.63;;;;;;;;;;4998476;28;20562;-66
2023/05/23 01:43:53;;;;;;;5.38;3.30;;;;;;;;;;5025729;28;20033;-66
2023/05/23 01:46:20;;;;;;;7.05;3.28;;;;;;;;;;5020027;28;20073;-66
2023/05/23 01:48:47;;;;;;;3.70;2.70;;;;;;;;;;5024874;28;20051;-66
2023/05/23 01:51:14;;;;;;;6.90;3.67;;;;;;;;;;5025010;28;20037;-66
2023/05/23 01:53:40;;;;;;;6.53;3.38;;;;;;;;;;5025501;28;20041;-66
2023/05/23 01:56:06;;;;;;;5.78;3.72;;;;;;;;;;5019657;28;20157;-66
2023/05/23 01:58:32;;;;;;;6.03;4.18;;;;;;;;;;5021961;28;20045;-66
2023/05/23 02:00:59;;;;;;;4.15;2.90;;;;;;;;;;5025313;28;20056;-66
2023/05/23 02:03:25;;;;;;;4.55;3.75;;;;;;;;;;5025485;28;20554;-66
2023/05/23 02:05:51;;;;;;;6.60;3.05;;;;;;;;;;5023002;28;20061;-66
2023/05/23 02:08:17;;;;;;;4.65;3.08;;;;;;;;;;5024919;28;20394;-66
2023/05/23 02:10:43;;;;;;;2.70;2.50;;;;;;;;;;5024907;28;20053;-66
2023/05/23 02:13:09;;;;;;;4.50;2.70;;;;;;;;;;5025305;28;20048;-66
2023/05/23 02:15:35;;;;;;;2.90;2.60;;;;;;;;;;5024408;28;20124;-66
2023/05/23 02:18:02;;;;;;;8.93;3.22;;;;;;;;;;5024557;28;20117;-66
2023/05/23 02:20:28;;;;;;;5.32;3.15;;;;;;;;;;5025681;28;20053;-66
2023/05/23 02:22:54;;;;;;;3.70;3.00;;;;;;;;;;4996424;28;20115;-66
2023/05/23 02:25:20;;;;;;;3.92;3.13;;;;;;;;;;5025173;28;20045;-66
2023/05/23 02:27:46;;;;;;;3.25;2.58;;;;;;;;;;5019645;28;20140;-66
2023/05/23 02:30:12;;;;;;;4.38;2.78;;;;;;;;;;5024442;28;20482;-66
2023/05/23 02:32:38;;;;;;;6.20;3.03;;;;;;;;;;5025334;28;20045;-66
2023/05/23 02:35:05;;;;;;;3.47;2.50;;;;;;;;;;5024420;28;20053;-66
2023/05/23 02:37:31;;;;;;;4.72;3.05;;;;;;;;;;5024487;28;20513;-66
2023/05/23 02:39:57;;;;;;;3.90;2.80;;;;;;;;;;5024456;28;20041;-66
2023/05/23 02:42:23;;;;;;;4.50;2.67;;;;;;;;;;5025243;28;20033;-65
2023/05/23 02:44:49;;;;;;;6.45;3.40;;;;;;;;;;5023711;28;20489;-66
2023/05/23 02:47:15;;;;;;;4.00;3.42;;;;;;;;;;5021941;28;20072;-66
2023/05/23 02:49:41;;;;;;;5.50;3.22;;;;;;;;;;5024684;28;20112;-66
2023/05/23 02:52:07;;;;;;;3.63;2.45;;;;;;;;;;5024022;28;20049;-66
2023/05/23 02:54:33;;;;;;;3.38;2.10;;;;;;;;;;5024836;28;20047;-66
2023/05/23 02:57:00;;;;;;;4.32;2.83;;;;;;;;;;5023963;28;20437;-66
2023/05/23 02:59:26;;;;;;;7.65;2.72;;;;;;;;;;5018744;28;20053;-66
2023/05/23 03:01:52;;;;;;;6.43;2.90;;;;;;;;;;5023584;28;20564;-66
2023/05/23 03:04:18;;;;;;;4.07;2.80;;;;;;;;;;5024846;28;20064;-66
2023/05/23 03:06:44;;;;;;;7.05;3.55;;;;;;;;;;5023613;28;20156;-66
2023/05/23 03:09:10;;;;;;;4.45;2.92;;;;;;;;;;5024961;28;20073;-66
2023/05/23 03:11:36;;;;;;;6.25;3.50;;;;;;;;;;5021313;28;20049;-66
2023/05/23 03:14:02;;;;;;;4.13;2.50;;;;;;;;;;5023797;28;20401;-66
2023/05/23 03:16:28;;;;;;;3.72;2.85;;;;;;;;;;5007437;28;20124;-66
2023/05/23 03:18:54;;;;;;;3.60;2.58;;;;;;;;;;5023095;28;20496;-66
2023/05/23 03:21:20;;;;;;;8.73;3.70;;;;;;;;;;5016623;28;20056;-66
2023/05/23 03:23:46;;;;;;;7.10;3.30;;;;;;;;;;5023928;28;20042;-66
2023/05/23 03:26:12;;;;;;;4.35;2.42;;;;;;;;;;5024057;28;20482;-66
2023/05/23 03:28:38;;;;;;;2.30;2.10;;;;;;;;;;5024402;28;20088;-66
2023/05/23 03:31:04;;;;;;;3.00;1.95;;;;;;;;;;5023506;28;20718;-66
2023/05/23 03:33:30;;;;;;;3.08;2.33;;;;;;;;;;5023815;28;20038;-66
2023/05/23 03:35:57;;;;;;;2.45;1.63;;;;;;;;;;5019933;28;20049;-66
2023/05/23 03:38:23;;;;;;;4.45;2.00;;;;;;;;;;5025465;28;20659;-66
2023/05/23 03:40:49;;;;;;;3.97;2.00;;;;;;;;;;5027248;28;20048;-66
2023/05/23 03:43:15;;;;;;;2.45;1.60;;;;;;;;;;5028634;28;20581;-66
2023/05/23 03:45:41;;;;;;;1.88;1.60;;;;;;;;;;5029102;28;20041;-66
2023/05/23 03:48:07;;;;;;;2.92;1.70;;;;;;;;;;5027793;28;20042;-66
2023/05/23 03:50:33;;;;;;;2.35;1.38;;;;;;;;;;5012555;28;20139;-66
2023/05/23 03:52:59;;;;;;;2.90;1.60;;;;;;;;;;5028554;28;20041;-65
2023/05/23 03:55:25;;;;;;;2.70;1.67;;;;;;;;;;5027560;28;20034;-65
2023/05/23 03:57:51;;;;;;;2.38;1.40;;;;;;;;;;5027543;28;20045;-66
2023/05/23 04:00:17;;;;;;;3.20;1.42;;;;;;;;;;5028428;28;20041;-66
2023/05/23 04:02:44;;;;;;;2.67;1.58;;;;;;;;;;5027280;28;20257;-66
2023/05/23 04:05:11;;;;;;;2.65;1.50;;;;;;;;;;5028011;28;20224;-66
2023/05/23 04:07:37;;;;;;;2.78;1.25;;;;;;;;;;5027998;28;20080;-66
2023/05/23 04:10:03;;;;;;;2.45;1.38;;;;;;;;;;5020867;28;20038;-66
2023/05/23 04:12:30;;;;;;;1.50;0.90;;;;;;;;;;5022074;28;20045;-66
2023/05/23 04:14:59;;;;;;;2.97;1.52;;;;;;;;;;5007962;28;20049;-66
2023/05/23 04:17:29;;;;;;;3.40;1.30;;;;;;;;;;5028168;28;20548;-65
2023/05/23 04:19:55;;;;;;;4.80;1.60;;;;;;;;;;5024636;28;20777;-65
2023/05/23 04:22:21;;;;;;;2.83;1.50;;;;;;;;;;5027416;28;20053;-65
2023/05/23 04:24:47;;;;;;;2.85;1.10;;;;;;;;;;5023544;28;20041;-65
2023/05/23 04:27:13;;;;;;;2.63;1.38;;;;;;;;;;5026453;28;20088;-65
2023/05/23 04:29:39;;;;;;;2.03;1.17;;;;;;;;;;5027146;28;20468;-65
2023/05/23 04:32:06;;;;;;;3.72;2.20;;;;;;;;;;5026903;28;20042;-65
2023/05/23 04:34:33;;;;;;;3.10;1.35;;;;;;;;;;5027736;28;20110;-65
2023/05/23 04:37:02;;;;;;;2.15;1.60;;;;;;;;;;5026709;28;20052;-65
2023/05/23 04:39:28;;;;;;;4.70;1.38;;;;;;;;;;5026995;28;20051;-65
2023/05/23 04:41:55;;;;;;;3.25;1.60;;;;;;;;;;5008948;28;20670;-65
2023/05/23 04:44:22;;;;;;;1.42;1.33;;;;;;;;;;5024861;28;20050;-65
2023/05/23 04:46:49;;;;;;;4.07;1.98;;;;;;;;;;5013851;28;20362;-65
2023/05/23 04:49:15;;;;;;;7.47;3.30;;;;;;;;;;5027076;28;20422;-66
2023/05/23 04:51:41;;;;;;;3.17;2.40;;;;;;;;;;5026154;28;20163;-66
2023/05/23 04:54:07;;;;;;;5.45;2.78;;;;;;;;;;5027225;28;20069;-66
2023/05/23 04:56:33;;;;;;;7.15;3.20;;;;;;;;;;5027307;28;20033;-66
2023/05/23 04:58:59;;;;;;;7.25;3.63;;;;;;;;;;5007930;28;20064;-66
2023/05/23 05:01:26;;;;;;;3.92;2.55;;;;;;;;;;5027269;28;20053;-66
2023/05/23 05:03:52;;;;;;;5.20;3.13;;;;;;;;;;5022174;28;20053;-65
2023/05/23 05:06:20;;;;;;;7.97;3.10;;;;;;;;;;5026588;28;20128;-65
2023/05/23 05:08:46;;;;;;;5.93;2.72;;;;;;;;;;5026385;28;20073;-65
2023/05/23 05:11:12;;;;;;;5.35;2.85;;;;;;;;;;5026237;28;20068;-72
2023/05/23 05:13:38;;;;;;;4.03;2.67;;;;;;;;;;5026811;28;20163;-65
2023/05/23 05:16:04;;;;;;;5.60;2.35;;;;;;;;;;5026000;28;20081;-66
2023/05/23 05:18:30;;;;;;;5.57;2.50;;;;;;;;;;5026101;28;20457;-65
2023/05/23 05:20:57;;;;;;;3.58;2.13;;;;;;;;;;5022695;28;20076;-65
2023/05/23 05:23:25;;;;;;;2.75;1.67;;;;;;;;;;5021878;28;20052;-65
2023/05/23 05:25:51;;;;;;;2.33;1.67;;;;;;;;;;5025375;28;20041;-65
2023/05/23 05:28:17;;;;;;;2.13;1.63;;;;;;;;;;5026667;28;20087;-65
2023/05/23 05:30:45;;;;;;;5.97;2.30;;;;;;;;;;5021196;28;20128;-65
2023/05/23 05:33:11;;;;;;;4.72;3.22;;;;;;;;;;5025544;28;20203;-65
2023/05/23 05:35:40;;;;;;;8.00;3.05;;;;;;;;;;5024396;28;20120;-65
2023/05/23 05:38:07;;;;;;;4.88;2.65;;;;;;;;;;5025677;28;20057;-65
2023/05/23 05:40:33;;;;;;;3.22;2.25;;;;;;;;;;5025399;28;20505;-65
2023/05/23 05:42:59;;;;;;;3.90;2.65;;;;;;;;;;5026133;28;20041;-65
2023/05/23 05:45:25;;;;;;;3.95;1.85;;;;;;;;;;5026358;28;20038;-65
2023/05/23 05:47:51;;;;;;;3.30;2.40;;;;;;;;;;5015713;28;20044;-65
2023/05/23 05:50:19;;;;;;;3.42;2.13;;;;;;;;;;5026093;28;20041;-65
2023/05/23 05:52:45;;;;;;;4.53;2.47;;;;;;;;;;5024799;28;20088;-65
2023/05/23 05:55:11;;;;;;;3.10;2.00;;;;;;;;;;5025381;28;20053;-65
2023/05/23 05:57:38;;;;;;;6.20;2.10;;;;;;;;;;5024043;28;20038;-65
2023/05/23 06:00:13;;;;;;;2.38;1.63;;;;;;;;;;5019173;28;20596;-65
2023/05/23 06:02:43;;;;;;;3.20;1.70;;;;;;;;;;5007886;28;20050;-65
2023/05/23 06:05:11;;;;;;;3.03;1.67;;;;;;;;;;5025355;28;20490;-65
2023/05/23 06:07:40;;;;;;;2.65;1.65;;;;;;;;;;5022097;28;20841;-65
2023/05/23 06:10:07;;;;;;;4.03;1.63;;;;;;;;;;5024508;28;20049;-65
2023/05/23 06:12:33;;;;;;;3.17;1.75;;;;;;;;;;5023453;28;20041;-65
2023/05/23 06:15:00;;;;;;;3.90;1.40;;;;;;;;;;5018960;28;20038;-66
2023/05/23 06:17:26;;;;;;;8.60;2.10;;;;;;;;;;5023448;28;20497;-65
2023/05/23 06:19:52;;;;;;;5.22;2.13;;;;;;;;;;5025015;28;20048;-65
2023/05/23 06:22:18;;;;;;;5.75;2.15;;;;;;;;;;5024952;28;20033;-65
2023/05/23 06:24:44;;;;;;;5.32;1.60;;;;;;;;;;5008014;28;20041;-65
2023/05/23 06:27:10;;;;;;;7.88;2.58;;;;;;;;;;5025118;28;20510;-65
2023/05/23 06:29:36;;;;;;;4.05;1.92;;;;;;;;;;5022960;28;20049;-65
2023/05/23 06:32:02;;;;;;;3.50;1.58;;;;;;;;;;5007198;28;20042;-65
2023/05/23 06:34:28;;;;;;;6.93;2.22;;;;;;;;;;5007064;28;20041;-65
2023/05/23 06:36:54;;;;;;;8.80;2.97;;;;;;;;;;5004959;28;20038;-65
2023/05/23 06:39:21;;;;;;;7.00;2.20;;;;;;;;;;4986290;28;20038;-65
2023/05/23 06:41:47;;;;;;;5.93;2.28;;;;;;;;;;5013634;28;20041;-65
2023/05/23 06:44:13;;;;;;;4.13;2.35;;;;;;;;;;5022731;28;20102;-65
2023/05/23 06:46:39;;;;;;;5.32;1.90;;;;;;;;;;5023836;28;20041;-66
2023/05/23 06:49:05;;;;;;;3.25;1.50;;;;;;;;;;5021719;28;20545;-66
2023/05/23 06:51:31;;;;;;;4.85;2.28;;;;;;;;;;5022853;28;20047;-66
2023/05/23 06:53:57;;;;;;;6.40;2.30;;;;;;;;;;5022967;28;20072;-66
2023/05/23 06:56:23;;;;;;;5.65;2.20;;;;;;;;;;5023896;28;20497;-66
2023/05/23 06:58:49;;;;;;;6.28;2.38;;;;;;;;;;5020739;28;20029;-65
2023/05/23 07:01:15;;;;;;;5.63;2.53;;;;;;;;;;5000406;28;20089;-67
2023/05/23 07:03:44;;;;;;;4.40;2.20;;;;;;;;;;5002692;28;20081;-60
2023/05/23 07:06:10;;;;;;;8.02;2.50;;;;;;;;;;5020006;28;20079;-66
2023/05/23 07:08:36;;;;;;;4.55;1.98;;;;;;;;;;5027656;28;20057;-71
2023/05/23 07:11:03;;;;;;;9.65;2.70;;;;;;;;;;5004845;28;20081;-65
2023/05/23 07:13:29;;;;;;;7.40;2.25;;;;;;;;;;5017604;28;20034;-64
2023/05/23 07:15:55;;;;;;;4.18;1.90;;;;;;;;;;5021780;28;20064;-64
2023/05/23 07:18:22;;;;;;;5.40;2.17;;;;;;;;;;5005631;28;20049;-64
2023/05/23 07:20:48;;;;;;;4.10;2.10;;;;;;;;;;5023190;28;20045;-64
2023/05/23 07:23:15;;;;;;;6.72;1.90;;;;;;;;;;5023946;28;20049;-64
2023/05/23 07:25:41;;;;;;;5.00;1.65;;;;;;;;;;5023422;28;20044;-65
2023/05/23 07:28:08;;;;;;;3.88;1.58;;;;;;;;;;5008206;28;20086;-64
2023/05/23 07:30:34;;;;;;;4.78;1.65;;;;;;;;;;5007377;28;20049;-64
2023/05/23 07:32:59;;;;;;;6.30;1.95;;;;;;;;;;5021980;28;20037;-64
2023/05/23 07:35:26;;;;;;;3.85;1.63;;;;;;;;;;5024024;28;20219;-64
2023/05/23 07:37:52;;;;;;;6.13;1.95;;;;;;;;;;5023721;28;20068;-64
2023/05/23 07:40:18;;;;;;;6.15;1.80;;;;;;;;;;5023218;28;20057;-64
2023/05/23 07:42:44;;;;;;;5.53;2.17;;;;;;;;;;5023798;28;20037;-64
2023/05/23 07:45:11;;;;;;;4.88;1.65;;;;;;;;;;5018809;28;20045;-64
2023/05/23 07:47:37;;;;;;;6.03;2.35;;;;;;;;;;5022998;28;20053;-64
2023/05/23 07:50:03;;;;;;;5.07;2.08;;;;;;;;;;5008034;28;20037;-64
2023/05/23 07:52:32;;;;;;;4.40;1.83;;;;;;;;;;5009921;28;20038;-64
2023/05/23 07:54:58;;;;;;;2.88;1.65;;;;;;;;;;5021759;28;20084;-64
2023/05/23 07:57:24;;;;;;;5.30;1.80;;;;;;;;;;5023741;28;20030;-64
2023/05/23 07:59:51;;;;;;;3.67;2.17;;;;;;;;;;5021917;28;20531;-64
2023/05/23 08:02:17;;;;;;;5.95;1.98;;;;;;;;;;5024009;28;20062;-64
2023/05/23 08:04:44;;;;;;;4.57;1.70;;;;;;;;;;5023557;28;20505;-64
2023/05/23 08:07:11;;;;;;;3.83;1.58;;;;;;;;;;5013251;28;20077;-64
2023/05/23 08:09:39;;;;;;;5.30;2.10;;;;;;;;;;5015310;28;20088;-64
2023/05/23 08:12:05;;;;;;;4.22;1.40;;;;;;;;;;5023064;28;20105;-64
2023/05/23 08:14:31;;;;;;;5.68;2.13;;;;;;;;;;5023781;28;20048;-65
2023/05/23 08:16:57;;;;;;;6.03;2.10;;;;;;;;;;5023160;28;20073;-65
2023/05/23 08:19:23;;;;;;;7.05;2.60;;;;;;;;;;5015297;28;20075;-65
2023/05/23 08:21:51;;;;;;;5.45;2.00;;;;;;;;;;5004646;28;20048;-65
2023/05/23 08:24:17;;;;;;;5.05;2.42;;;;;;;;;;5023824;28;20053;-65
2023/05/23 08:26:43;;;;;;;5.88;2.40;;;;;;;;;;5027929;28;20431;-65
2023/05/23 08:29:10;;;;;;;12.60;3.22;;;;;;;;;;5026974;28;20371;-65
2023/05/23 08:31:35;;;;;;;7.80;2.50;;;;;;;;;;5027832;28;20800;-65
2023/05/23 08:34:01;;;;;;;9.35;2.60;;;;;;;;;;5027930;28;20315;-65
2023/05/23 08:36:28;;;;;;;5.20;1.90;;;;;;;;;;5027827;28;20108;-65
2023/05/23 08:38:54;;;;;;;5.45;2.30;;;;;;;;;;5027435;28;20098;-65
2023/05/23 08:41:23;;;;;;;7.15;2.08;;;;;;;;;;5026631;28;20120;-65
2023/05/23 08:43:49;;;;;;;4.25;2.03;;;;;;;;;;5024708;28;20045;-65
2023/05/23 08:46:15;;;;;;;6.05;2.22;;;;;;;;;;5025849;28;20046;-65
2023/05/23 08:48:42;;;;;;;4.50;1.88;;;;;;;;;;5026061;28;20049;-65
2023/05/23 08:51:13;;;;;;;6.72;2.10;;;;;;;;;;5025143;28;20037;-65
2023/05/23 08:53:45;;;;;;;7.95;2.33;;;;;;;;;;5025643;28;20041;-65
2023/05/23 08:56:12;;;;;;;4.70;2.28;;;;;;;;;;5025564;28;20128;-65
2023/05/23 08:58:40;;;;;;;7.85;2.67;;;;;;;;;;5027457;28;20098;-65
2023/05/23 09:01:08;;;;;;;7.40;2.60;;;;;;;;;;5027500;28;20090;-65
2023/05/23 09:03:36;;;;;;;6.40;1.67;;;;;;;;;;5026453;28;20061;-65
2023/05/23 09:06:06;;;;;;;5.95;2.35;;;;;;;;;;5027134;28;20458;-64
2023/05/23 09:08:33;;;;;;;4.13;1.77;;;;;;;;;;5027361;28;20219;-64
2023/05/23 09:11:01;;;;;;;5.88;2.08;;;;;;;;;;5026673;28;20490;-64
2023/05/23 09:13:29;;;;;;;3.63;1.73;;;;;;;;;;5027504;28;20155;-64
2023/05/23 09:16:01;;;;;;;5.10;2.10;;;;;;;;;;5026848;28;20091;-64
2023/05/23 09:18:27;;;;;;;3.88;2.00;;;;;;;;;;5008747;28;20235;-64
2023/05/23 09:20:53;;;;;;;6.07;2.25;;;;;;;;;;5026510;28;20053;-64
2023/05/23 09:23:19;;;;;;;7.25;2.05;;;;;;;;;;5026864;28;20053;-64
2023/05/23 09:25:46;;;;;;;3.67;1.80;;;;;;;;;;5026037;28;20045;-64
2023/05/23 09:28:12;;;;;;;5.28;2.05;;;;;;;;;;5026641;28;20046;-64
2023/05/23 09:30:38;;;;;;;6.78;1.90;;;;;;;;;;5027009;28;20567;-64
2023/05/23 09:33:04;;;;;;;7.25;2.20;;;;;;;;;;5025801;28;20057;-64
2023/05/23 09:35:30;;;;;;;6.05;2.33;;;;;;;;;;5027279;28;20120;-64
2023/05/23 09:38:00;;;;;;;7.03;2.35;;;;;;;;;;5026044;28;20045;-64
2023/05/23 09:40:30;;;;;;;3.83;1.83;;;;;;;;;;5025931;28;20120;-64
2023/05/23 09:43:01;;;;;;;7.20;2.42;;;;;;;;;;5026145;28;20083;-64
2023/05/23 09:45:30;;;;;;;4.95;1.73;;;;;;;;;;5025836;28;20135;-64
2023/05/23 09:47:56;;;;;;;5.60;1.73;;;;;;;;;;5026382;28;20668;-64
2023/05/23 09:50:22;;;;;;;3.78;1.60;;;;;;;;;;5026644;28;20191;-65
2023/05/23 09:52:49;;;;;;;6.47;2.40;;;;;;;;;;5025376;28;20116;-65
2023/05/23 09:55:15;;;;;;;5.75;1.90;;;;;;;;;;5026429;28;20134;-65
2023/05/23 09:57:42;;;;;;;3.58;1.73;;;;;;;;;;5026469;28;20041;-65
2023/05/23 10:00:12;;;;;;;2.97;1.60;;;;;;;;;;5025382;28;20081;-65
2023/05/23 10:02:57;;;;;;;4.13;1.35;;;;;;;;;;5026240;28;20442;-65
2023/05/23 10:05:43;;;;;;;8.00;1.75;;;;;;;;;;5026161;28;20289;-65
2023/05/23 10:08:32;;;;;;;4.93;1.65;;;;;;;;;;5011340;28;20124;-65
2023/05/23 10:11:05;;;;;;;3.83;1.92;;;;;;;;;;5015535;28;20061;-65
2023/05/23 10:13:31;;;;;;;4.10;1.55;;;;;;;;;;5026026;28;20056;-65
2023/05/23 10:16:11;;;;;;;6.40;2.13;;;;;;;;;;5025390;28;20513;-65
2023/05/23 10:18:43;;;;;;;4.38;2.13;;;;;;;;;;5026006;28;20045;-65
2023/05/23 10:21:11;;;;;;;5.82;2.10;;;;;;;;;;5024903;28;20091;-65
2023/05/23 10:23:38;;;;;;;4.38;1.42;;;;;;;;;;5026112;28;20120;-65
2023/05/23 10:26:04;;;;;;;5.70;1.95;;;;;;;;;;5025376;28;20048;-65
2023/05/23 10:28:33;;;;;;;4.50;2.15;;;;;;;;;;5025371;28;20045;-65
2023/05/23 10:31:00;;;;;;;4.40;1.60;;;;;;;;;;5025880;28;20547;-65
2023/05/23 10:33:27;;;;;;;3.13;1.48;;;;;;;;;;5025886;28;20409;-65
2023/05/23 10:35:56;;;;;;;5.18;1.77;;;;;;;;;;5024498;28;20053;-65
2023/05/23 10:38:22;;;;;;;4.88;1.90;;;;;;;;;;5025597;28;20524;-65
2023/05/23 10:41:17;;;;;;;4.07;1.73;;;;;;;;;;5025022;28;20037;-65
2023/05/23 10:44:06;;;;;;;4.78;1.92;;;;;;;;;;4997104;28;20516;-65
2023/05/23 10:46:56;;;;;;;4.03;1.75;;;;;;;;;;5015120;28;20072;-65
2023/05/23 10:49:37;;;;;;;6.10;2.17;;;;;;;;;;5023850;28;20857;-65
2023/05/23 10:52:03;;;;;;;5.60;2.00;;;;;;;;;;5023888;28;20033;-65
2023/05/23 10:54:34;;;;;;;5.28;2.60;;;;;;;;;;5012301;28;20390;-65
2023/05/23 10:57:04;;;;;;;4.22;1.80;;;;;;;;;;5002317;28;20084;-65
2023/05/23 10:59:30;;;;;;;3.47;1.30;;;;;;;;;;5005733;28;20042;-64
2023/05/23 11:01:56;;;;;;;5.75;1.55;;;;;;;;;;5004545;28;20064;-64
2023/05/23 11:04:26;;;;;;;3.10;1.70;;;;;;;;;;5004895;28;20054;-64
2023/05/23 11:06:53;;;;;;;7.50;2.45;;;;;;;;;;5005123;28;20112;-64
2023/05/23 11:09:20;;;;;;;4.93;1.92;;;;;;;;;;5005046;28;20034;-64
2023/05/23 11:11:52;;;;;;;8.38;1.85;;;;;;;;;;4986455;28;20151;-63
2023/05/23 11:14:19;;;;;;;7.50;2.33;;;;;;;;;;4985565;28;20121;-63
2023/05/23 11:16:47;;;;;;;3.42;1.27;;;;;;;;;;4969842;28;20052;-64
2023/05/23 11:19:24;;;;;;;3.50;1.80;;;;;;;;;;5001355;28;20121;-64
2023/05/23 11:21:58;;;;;;;6.80;2.88;;;;;;;;;;4986950;28;20544;-63
2023/05/23 11:24:24;;;;;;;5.00;1.60;;;;;;;;;;5004594;28;20049;-63
2023/05/23 11:26:59;;;;;;;4.15;1.77;;;;;;;;;;5004747;28;20079;-63
2023/05/23 11:29:29;;;;;;;4.97;2.00;;;;;;;;;;5005043;28;20447;-63
2023/05/23 11:31:56;;;;;;;6.15;1.60;;;;;;;;;;5002664;28;20046;-63
2023/05/23 11:34:25;;;;;;;6.28;1.90;;;;;;;;;;5018145;28;20413;-63
2023/05/23 11:36:52;;;;;;;2.47;1.20;;;;;;;;;;5011330;28;20140;-63
2023/05/23 11:39:19;;;;;;;2.38;1.35;;;;;;;;;;5006091;28;20044;-63
2023/05/23 11:41:49;;;;;;;2.95;1.48;;;;;;;;;;5024319;28;20553;-63
2023/05/23 11:44:16;;;;;;;2.75;1.00;;;;;;;;;;5024746;28;20037;-63
2023/05/23 11:46:58;;;;;;;5.13;1.60;;;;;;;;;;5018873;28;20482;-64
2023/05/23 11:49:24;;;;;;;1.88;1.08;;;;;;;;;;5003704;28;20083;-64
2023/05/23 11:51:50;;;;;;;4.20;1.85;;;;;;;;;;5021209;28;20080;-64
2023/05/23 11:54:16;;;;;;;6.07;1.98;;;;;;;;;;5016650;28;20041;-64
2023/05/23 11:56:42;;;;;;;3.10;1.70;;;;;;;;;;5024041;28;20041;-64
2023/05/23 11:59:08;;;;;;;6.07;2.10;;;;;;;;;;5023031;28;20071;-64
2023/05/23 12:01:37;;;;;;;5.00;1.92;;;;;;;;;;5027498;28;20052;-64
2023/05/23 12:04:09;;;;;;;9.23;2.28;;;;;;;;;;5022102;28;20038;-64
2023/05/23 12:06:37;;;;;;;5.97;2.47;;;;;;;;;;5007671;28;20038;-64
2023/05/23 12:09:03;;;;;;;5.05;1.70;;;;;;;;;;5017905;28;20099;-64
2023/05/23 12:11:33;;;;;;;3.83;1.55;;;;;;;;;;5028140;28;20041;-64
2023/05/23 12:14:01;;;;;;;9.30;2.08;;;;;;;;;;5026366;28;20541;-64
2023/05/23 12:16:28;;;;;;;3.78;1.88;;;;;;;;;;5014279;28;20168;-64
2023/05/23 12:18:55;;;;;;;3.75;1.73;;;;;;;;;;5008120;28;20046;-64
2023/05/23 12:21:25;;;;;;;3.00;1.55;;;;;;;;;;5014340;28;20041;-64
2023/05/23 12:23:51;;;;;;;5.10;2.03;;;;;;;;;;5020408;28;20099;-64
2023/05/23 12:26:17;;;;;;;6.53;1.90;;;;;;;;;;5020254;28;20038;-63
2023/05/23 12:28:44;;;;;;;3.28;1.20;;;;;;;;;;5026180;28;20167;-63
2023/05/23 12:31:16;;;;;;;9.05;2.08;;;;;;;;;;5026027;28;20042;-63
2023/05/23 12:33:46;;;;;;;;;;;;;;;;;;5026900;28;20402;-63
2023/05/23 12:36:13;;;;;;;5.78;1.73;;;;;;;;;;5026207;28;19928;-63
2023/05/23 12:38:39;;;;;;;6.60;2.00;;;;;;;;;;5027689;28;20091;-63
2023/05/23 12:41:12;;;;;;;7.75;1.90;;;;;;;;;;5027417;28;20042;-63
2023/05/23 12:43:39;;;;;;;4.05;1.80;;;;;;;;;;5028478;28;20037;-63
2023/05/23 12:46:06;;;;;;;7.63;1.70;;;;;;;;;;5026132;28;20056;-63
2023/05/23 12:48:32;;;;;;;2.92;1.45;;;;;;;;;;5025966;28;20124;-63
2023/05/23 12:50:58;;;;;;;6.32;1.60;;;;;;;;;;5025874;28;20049;-63
2023/05/23 12:53:26;;;;;;;2.28;1.25;;;;;;;;;;5025928;28;20033;-63
2023/05/23 12:55:52;;;;;;;3.75;1.42;;;;;;;;;;5024872;28;20175;-63
2023/05/23 12:58:18;;;;;;;5.70;1.35;;;;;;;;;;5025870;28;20041;-64
2023/05/23 13:00:44;;;;;;;4.35;1.77;;;;;;;;;;5024484;28;20048;-63
2023/05/23 13:03:10;;;;;;;5.15;1.77;;;;;;;;;;5020504;28;20180;-63
2023/05/23 13:05:36;;;;;;;2.33;1.40;;;;;;;;;;5004395;28;20038;-63
2023/05/23 13:08:02;;;;;;;2.80;1.25;;;;;;;;;;5002773;28;20038;-63
2023/05/23 13:10:28;;;;;;;4.93;1.73;;;;;;;;;;5001666;28;20452;-64
2023/05/23 13:12:54;;;;;;;2.75;1.20;;;;;;;;;;5006650;28;20120;-64
2023/05/23 13:15:20;;;;;;;2.95;1.10;;;;;;;;;;5004156;28;20035;-64
2023/05/23 13:17:47;;;;;;;4.20;1.65;;;;;;;;;;4994517;28;20050;-64
2023/05/23 13:20:13;;;;;;;4.43;1.88;;;;;;;;;;5003478;28;20053;-64
2023/05/23 13:22:39;;;;;;;3.92;1.92;;;;;;;;;;4997086;28;20222;-65
2023/05/23 13:25:07;;;;;;;3.30;1.65;;;;;;;;;;5002029;28;20229;-64
2023/05/23 13:27:33;;;;;;;4.57;1.50;;;;;;;;;;5006583;28;20037;-64
2023/05/23 13:29:59;;;;;;;1.95;1.02;;;;;;;;;;5003677;28;20399;-64
2023/05/23 13:32:25;;;;;;;5.07;1.55;;;;;;;;;;5000280;28;20117;-64
2023/05/23 13:34:51;;;;;;;4.18;1.38;;;;;;;;;;5004692;28;20041;-63
2023/05/23 13:37:17;;;;;;;3.58;1.30;;;;;;;;;;5004224;28;20042;-63
2023/05/23 13:39:43;;;;;;;4.00;1.30;;;;;;;;;;5000517;28;20158;-63
2023/05/23 13:42:10;;;;;;;7.20;1.83;;;;;;;;;;5003572;28;20053;-63
2023/05/23 13:44:36;;;;;;;3.00;1.38;;;;;;;;;;4983710;28;20097;-63
2023/05/23 13:47:12;;;;;;;3.25;1.50;;;;;;;;;;5003225;28;20037;-63
2023/05/23 13:49:38;;;;;;;2.50;1.23;;;;;;;;;;5002277;28;20073;-63
2023/05/23 13:52:04;;;;;;;3.58;1.50;;;;;;;;;;4996555;28;20046;-64
2023/05/23 13:54:31;;;;;;;3.70;1.30;;;;;;;;;;4997205;28;20530;-64
2023/05/23 13:56:57;;;;;;;3.17;1.60;;;;;;;;;;5002834;28;20411;-63
2023/05/23 13:59:23;;;;;;;6.15;1.65;;;;;;;;;;5002417;28;20061;-63
2023/05/23 14:01:49;;;;;;;2.63;1.20;;;;;;;;;;4997378;28;20053;-63
2023/05/23 14:04:15;;;;;;;4.85;1.73;;;;;;;;;;4999244;28;20056;-63
2023/05/23 14:06:41;;;;;;;5.72;1.73;;;;;;;;;;4998723;28;20041;-63
2023/05/23 14:09:07;;;;;;;5.07;1.55;;;;;;;;;;5000128;28;20222;-63
2023/05/23 14:11:33;;;;;;;4.80;1.55;;;;;;;;;;4982079;28;20034;-63
2023/05/23 14:13:59;;;;;;;4.45;1.65;;;;;;;;;;4994161;28;20030;-63
2023/05/23 14:16:25;;;;;;;4.95;1.40;;;;;;;;;;4998589;28;20403;-63
2023/05/23 14:18:51;;;;;;;4.07;1.20;;;;;;;;;;5002958;28;20042;-63
2023/05/23 14:21:17;;;;;;;6.50;1.85;;;;;;;;;;4995394;28;20042;-63
2023/05/23 14:23:43;;;;;;;4.30;1.55;;;;;;;;;;5004694;28;20034;-63
2023/05/23 14:26:09;;;;;;;7.72;1.65;;;;;;;;;;4999952;28;20081;-63
2023/05/23 14:28:36;;;;;;;2.88;1.60;;;;;;;;;;5002925;28;20096;-63
2023/05/23 14:31:02;;;;;;;3.67;1.45;;;;;;;;;;5003773;28;20049;-63
2023/05/23 14:33:28;;;;;;;6.13;1.83;;;;;;;;;;5003623;28;20030;-63
2023/05/23 14:35:54;;;;;;;6.30;1.30;;;;;;;;;;5022017;28;20060;-63
2023/05/23 14:38:20;;;;;;;4.72;1.40;;;;;;;;;;5021832;28;20029;-63
2023/05/23 14:40:47;;;;;;;3.13;1.70;;;;;;;;;;5011659;28;20413;-62
2023/05/23 14:43:13;;;;;;;2.63;1.23;;;;;;;;;;5011045;28;20072;-62
2023/05/23 14:45:39;;;;;;;3.58;1.48;;;;;;;;;;5014025;28;20041;-62